CheckWX is a tool to help pilots better visualize weather data.  It is not intended as a substitute for an official pre-flight weather briefing.

17:22:34 UTC

KMMV METAR
Mc Minnville Municipal Airport
Mc Minnville, Oregon, USA
Current

30 mins ago

KMMV 211653Z AUTO 00000KT 10SM CLR 21/13 A3000 RMK AO2 SLP157 T02060128
Observed
Jul-21 @ 16:53 UTC
Visibility
10 SM
Flight Rules
VFR
Cloud Levels
  • Clear skies
Temperature
21°C / 70°F
Dewpoint
13°C / 55°F
Humidity
60%
Altimeter
30" Hg
Pressure
1015.92 hPa
Previous

1 hour ago

KMMV 211553Z AUTO 20004KT 10SM CLR 17/13 A3000 RMK AO2 SLP159 T01720128
Observed
Jul-21 @ 15:53 UTC
Wind
  • 200° at 4 KTS
Visibility
10 SM
Flight Rules
VFR
Cloud Levels
  • Clear skies
Temperature
17°C / 63°F
Dewpoint
13°C / 55°F
Humidity
77%
Altimeter
30" Hg
Pressure
1015.92 hPa
Previous

2 hours ago

KMMV 211453Z AUTO 22008KT 10SM CLR 16/13 A3000 RMK AO2 SLP156 T01610128 51013
Observed
Jul-21 @ 14:53 UTC
Wind
  • 220° at 8 KTS
Visibility
10 SM
Flight Rules
VFR
Cloud Levels
  • Clear skies
Temperature
16°C / 61°F
Dewpoint
13°C / 55°F
Humidity
83%
Altimeter
30" Hg
Pressure
1015.92 hPa